Time;durP1;ratioP1;P1;durP2;ratioP2;P2;SDS_P1;SDS_P2;PMS_P1;PMS_P2;Temp;Humidity;BMP_temperature;BMP_pressure;BME280_temperature;BME280_humidity;BME280_pressure;Samples;Min_cycle;Max_cycle;Signal;HPM_P1;HPM_P2
2022/12/15 00:38:42;;;;;;;12.82;4.70;;;;;;;7.95;88.85;100408.13;4990739;28;20101;-82
2022/12/15 00:41:13;;;;;;;12.18;5.05;;;;;;;8.09;88.77;100398.75;4971385;28;20133;-83
2022/12/15 00:43:38;;;;;;;11.63;4.68;;;;;;;7.98;89.23;100391.78;4939530;28;20472;-82
2022/12/15 00:48:49;;;;;;;13.10;4.82;;;;;;;8.03;89.89;100364.56;4960472;28;20619;-82
2022/12/15 00:51:15;;;;;;;11.10;4.82;;;;;;;8.16;90.10;100375.72;4954218;28;20042;-82
2022/12/15 01:21:08;;;;;;;10.13;4.13;;;;;;;8.44;87.40;100289.94;4969748;28;20064;-82
2022/12/15 01:23:35;;;;;;;11.95;5.35;;;;;;;8.66;87.60;100313.56;4961311;28;20054;-80
2022/12/15 01:26:03;;;;;;;13.98;6.88;;;;;;;8.47;87.26;100272.72;4975477;28;20060;-80
2022/12/15 01:28:29;;;;;;;14.18;4.55;;;;;;;8.68;87.12;100312.56;4958580;28;20038;-82
2022/12/15 01:30:56;;;;;;;13.77;3.38;;;;;;;8.68;86.99;100304.50;4985753;28;20116;-81
2022/12/15 01:33:21;;;;;;;10.63;4.70;;;;;;;8.69;87.64;100303.53;4956701;28;20081;-80
2022/12/15 01:36:15;;;;;;;6.07;3.10;;;;;;;8.79;87.47;100306.94;4955475;28;20487;-81
2022/12/15 01:38:42;;;;;;;10.13;3.10;;;;;;;8.71;87.70;100296.16;4969350;28;20046;-83
2022/12/15 01:41:11;;;;;;;10.68;3.13;;;;;;;8.81;87.83;100291.53;4980936;28;20124;-82
2022/12/15 01:43:39;;;;;;;11.95;3.95;;;;;;;8.78;88.46;100291.84;4987862;28;20577;-82
2022/12/15 01:46:16;;;;;;;13.30;3.30;;;;;;;8.66;88.74;100283.22;4986514;28;20050;-82
2022/12/15 01:48:52;;;;;;;11.65;3.83;;;;;;;8.85;88.77;100292.91;4972478;28;20211;-84
2022/12/15 01:51:29;;;;;;;11.18;3.13;;;;;;;8.83;89.12;100281.50;4983957;28;20042;-83
2022/12/15 01:54:05;;;;;;;12.07;3.67;;;;;;;8.91;88.98;100286.91;4988246;28;20042;-81
2022/12/15 01:56:34;;;;;;;7.60;2.90;;;;;;;8.81;88.39;100275.47;4987719;28;21600;-82
2022/12/15 01:59:00;;;;;;;8.93;3.10;;;;;;;8.78;88.44;100265.03;4988169;28;20050;-82
2022/12/15 02:01:27;;;;;;;;;;;;;;;8.84;88.36;100281.31;4955214;28;20395;-81
2022/12/15 02:03:58;;;;;;;11.65;2.47;;;;;;;8.78;88.00;100279.31;4984589;28;19953;-79
2022/12/15 02:06:25;;;;;;;9.35;2.95;;;;;;;8.58;88.91;100251.03;4967384;28;20101;-82
2022/12/15 02:08:52;;;;;;;10.00;3.05;;;;;;;8.62;89.16;100239.84;4970720;28;20496;-83
2022/12/15 02:11:29;;;;;;;9.52;2.70;;;;;;;8.72;89.79;100273.72;4967394;28;20435;-82
2022/12/15 02:14:04;;;;;;;12.77;2.92;;;;;;;8.65;90.67;100260.94;4988529;28;20049;-81
2022/12/15 02:16:57;;;;;;;13.60;2.97;;;;;;;8.58;91.73;100267.09;4975510;28;20073;-80
2022/12/15 02:19:44;;;;;;;9.60;3.60;;;;;;;8.46;92.87;100245.09;4990523;28;20111;-81
2022/12/15 02:22:14;;;;;;;12.52;3.47;;;;;;;8.52;93.32;100243.59;4974236;28;20208;-80
2022/12/15 02:24:53;;;;;;;12.38;3.45;;;;;;;8.41;94.11;100228.66;4989879;28;20097;-82
2022/12/15 02:27:27;;;;;;;10.20;3.20;;;;;;;8.45;94.30;100240.72;4958200;28;20125;-82
2022/12/15 02:30:25;;;;;;;15.50;3.20;;;;;;;8.56;94.93;100266.41;4963381;28;20096;-82
2022/12/15 02:33:26;;;;;;;15.10;3.50;;;;;;;8.54;95.17;100257.69;4988284;28;20038;-84
2022/12/15 02:36:18;;;;;;;13.48;3.85;;;;;;;8.38;95.65;100229.78;4953457;28;20098;-83
2022/12/15 02:38:44;;;;;;;18.02;3.45;;;;;;;8.51;96.02;100240.09;4970423;28;20065;-81
2022/12/15 02:41:50;;;;;;;10.43;3.15;;;;;;;8.58;95.93;100227.75;4986178;28;20038;-81
2022/12/15 02:44:21;;;;;;;13.05;3.47;;;;;;;8.63;96.05;100238.81;4928185;29;20044;-81
2022/12/15 02:47:04;;;;;;;16.13;3.85;;;;;;;8.59;96.10;100233.94;4927580;29;20148;-81
2022/12/15 02:49:41;;;;;;;13.50;3.72;;;;;;;8.58;96.55;100238.47;4943037;28;20142;-81
2022/12/15 02:52:31;;;;;;;12.60;3.10;;;;;;;8.62;96.81;100255.09;4968001;28;20403;-82
2022/12/15 02:55:21;;;;;;;15.30;3.70;;;;;;;8.66;97.39;100245.69;4989494;28;20039;-81
2022/12/15 02:57:53;;;;;;;14.82;4.03;;;;;;;8.56;97.04;100228.91;4986533;28;20200;-81
2022/12/15 03:00:20;;;;;;;10.82;4.13;;;;;;;8.54;94.98;100228.22;4970818;28;20482;-81
2022/12/15 03:02:48;;;;;;;15.50;4.63;;;;;;;8.61;95.80;100240.81;4969136;28;20049;-82
2022/12/15 03:05:14;;;;;;;16.08;4.28;;;;;;;8.61;95.42;100234.63;4967127;28;20061;-82
2022/12/15 03:07:41;;;;;;;12.05;4.72;;;;;;;8.68;96.01;100237.50;4987461;28;20038;-83
2022/12/15 03:10:09;;;;;;;14.10;5.30;;;;;;;8.68;95.51;100242.88;4967704;28;20518;-83
2022/12/15 03:12:35;;;;;;;9.68;5.25;;;;;;;8.78;94.97;100239.09;4954433;28;20503;-82
2022/12/15 03:15:01;;;;;;;11.80;5.18;;;;;;;8.81;95.16;100232.56;4939572;28;20046;-80
2022/12/15 03:17:27;;;;;;;11.93;5.63;;;;;;;8.65;95.23;100212.72;4957069;28;20049;-82
2022/12/15 03:19:53;;;;;;;13.47;5.57;;;;;;;8.80;94.23;100229.06;4959273;28;20100;-84
2022/12/15 03:22:20;;;;;;;12.70;5.63;;;;;;;8.86;94.37;100212.31;4989885;28;20375;-82
2022/12/15 03:24:48;;;;;;;13.88;6.07;;;;;;;8.92;93.55;100213.53;4970036;28;20048;-83
2022/12/15 03:27:15;;;;;;;15.63;6.13;;;;;;;8.79;93.42;100210.44;4967633;28;20054;-82
2022/12/15 03:29:41;;;;;;;14.55;6.60;;;;;;;8.73;92.92;100197.66;4954691;28;20051;-81
2022/12/15 03:32:08;;;;;;;18.27;6.63;;;;;;;8.70;93.20;100198.00;4955583;28;20415;-83
2022/12/15 03:34:36;;;;;;;13.68;6.78;;;;;;;8.65;93.62;100196.63;4975281;28;20129;-83
2022/12/15 03:37:02;;;;;;;12.80;7.05;;;;;;;8.42;93.78;100177.59;4988597;28;20054;-81
2022/12/15 03:39:29;;;;;;;15.38;8.02;;;;;;;8.58;94.25;100200.94;4956418;28;20084;-82
2022/12/15 03:41:57;;;;;;;17.08;7.32;;;;;;;8.62;94.13;100196.97;4956275;28;20050;-83
2022/12/15 03:44:22;;;;;;;18.55;7.55;;;;;;;8.57;93.81;100190.38;4972661;28;20043;-82
2022/12/15 03:46:49;;;;;;;18.45;7.40;;;;;;;8.52;93.10;100190.88;4971804;28;20065;-83
2022/12/15 03:49:16;;;;;;;14.18;7.22;;;;;;;8.53;92.52;100187.19;4960968;28;20121;-82
2022/12/15 03:51:41;;;;;;;15.20;7.45;;;;;;;8.56;92.56;100194.91;4940291;28;20050;-85
2022/12/15 03:54:07;;;;;;;18.93;8.33;;;;;;;8.52;92.95;100200.75;4955048;28;20042;-82
2022/12/15 03:56:38;;;;;;;15.68;8.77;;;;;;;8.49;92.43;100195.72;4970524;28;20315;-82
2022/12/15 03:59:04;;;;;;;18.58;9.07;;;;;;;8.34;93.40;100182.03;4989844;28;20061;-84
2022/12/15 04:01:31;;;;;;;21.55;9.80;;;;;;;8.35;93.10;100189.06;4973509;28;20436;-83
2022/12/15 04:03:58;;;;;;;21.17;9.77;;;;;;;8.31;93.10;100185.00;4989941;28;20045;-81
2022/12/15 04:06:27;;;;;;;20.88;9.25;;;;;;;8.34;93.21;100188.22;4957030;28;20094;-83
2022/12/15 04:08:52;;;;;;;20.25;10.05;;;;;;;8.34;93.70;100171.31;4968169;28;20054;-81
2022/12/15 04:11:21;;;;;;;20.47;10.77;;;;;;;8.14;93.96;100160.81;4954521;28;20438;-82
2022/12/15 04:13:47;;;;;;;24.85;10.93;;;;;;;8.32;93.77;100173.31;4973664;28;20049;-81
2022/12/15 04:16:13;;;;;;;24.10;10.07;;;;;;;8.43;93.67;100187.31;4984397;28;20073;-83
2022/12/15 04:18:39;;;;;;;24.05;10.98;;;;;;;8.37;94.04;100189.75;4963308;28;20498;-83
2022/12/15 04:21:06;;;;;;;23.38;11.25;;;;;;;8.37;94.59;100187.06;4987241;28;20057;-84
2022/12/15 04:23:32;;;;;;;25.38;11.82;;;;;;;8.41;94.69;100175.09;4978376;28;20064;-80
2022/12/15 05:31:58;;;;;;;20.55;11.18;;;;;;;8.44;90.69;100182.78;4958646;28;20506;-85
2022/12/15 05:34:26;;;;;;;23.70;11.52;;;;;;;8.28;90.61;100148.69;4957300;28;20038;-85
2022/12/15 05:36:54;;;;;;;20.42;11.52;;;;;;;8.56;90.45;100181.50;4942425;28;20133;-84
2022/12/15 05:39:22;;;;;;;21.00;11.80;;;;;;;8.65;90.05;100185.06;4958211;28;20590;-85
2022/12/15 05:41:49;;;;;;;21.75;11.65;;;;;;;8.66;89.89;100181.38;4979241;28;20186;-86
2022/12/15 05:44:16;;;;;;;20.25;11.80;;;;;;;8.64;89.05;100178.06;4954324;28;20529;-86
2022/12/15 05:46:45;;;;;;;18.25;10.80;;;;;;;8.65;88.69;100185.06;4971617;28;20050;-85
2022/12/15 05:49:13;;;;;;;18.98;11.20;;;;;;;8.45;89.15;100174.59;4958399;28;20038;-85
2022/12/15 05:51:41;;;;;;;23.92;11.95;;;;;;;8.72;89.36;100190.66;4970904;28;20046;-87
2022/12/15 05:54:07;;;;;;;18.52;10.70;;;;;;;8.63;88.43;100176.34;4974702;28;20054;-85
2022/12/15 05:56:33;;;;;;;17.80;11.07;;;;;;;8.57;89.27;100206.47;4968275;28;20054;-86
2022/12/15 05:59:00;;;;;;;19.08;11.23;;;;;;;8.22;89.64;100147.47;4960294;28;20048;-85
2022/12/15 06:01:27;;;;;;;20.70;11.68;;;;;;;8.74;88.99;100202.03;4985853;28;20054;-84
2022/12/15 06:03:54;;;;;;;19.95;11.88;;;;;;;8.61;88.94;100191.75;4955305;28;20058;-85
2022/12/15 06:06:20;;;;;;;19.40;11.60;;;;;;;8.80;88.75;100194.22;4971390;28;20069;-86
2022/12/15 06:08:49;;;;;;;20.65;10.95;;;;;;;8.68;87.85;100165.16;4956880;28;20055;-84
2022/12/15 06:11:16;;;;;;;18.38;11.10;;;;;;;8.59;88.01;100196.44;4940701;28;20046;-85
2022/12/15 06:13:43;;;;;;;25.25;14.80;;;;;;;8.58;88.10;100168.78;4957835;28;20486;-86
2022/12/15 06:16:16;;;;;;;24.33;14.68;;;;;;;8.80;88.45;100209.44;4955741;28;20212;-83
2022/12/15 06:18:46;;;;;;;22.70;12.95;;;;;;;8.68;87.73;100200.00;4976148;28;20049;-85
2022/12/15 06:21:18;;;;;;;19.00;12.32;;;;;;;8.68;87.23;100178.56;4990020;28;20093;-85
2022/12/15 06:23:44;;;;;;;21.85;13.40;;;;;;;8.66;87.39;100198.34;4971817;28;20104;-85
2022/12/15 06:26:21;;;;;;;20.20;12.68;;;;;;;8.84;86.87;100218.84;4970915;28;20058;-85
2022/12/15 06:28:47;;;;;;;21.23;11.55;;;;;;;8.83;86.19;100201.09;4972771;28;20057;-85
2022/12/15 06:31:32;;;;;;;21.45;13.65;;;;;;;9.10;85.98;100242.91;4966437;28;20103;-87
2022/12/15 06:33:58;;;;;;;24.13;14.52;;;;;;;9.08;86.54;100234.19;5010611;28;20078;-85
2022/12/15 06:36:27;;;;;;;20.85;14.05;;;;;;;9.12;86.36;100248.13;4968252;28;20117;-86
2022/12/15 06:38:53;;;;;;;20.98;12.70;;;;;;;9.13;85.93;100236.38;4970782;28;20057;-88
2022/12/15 06:41:24;;;;;;;23.70;14.50;;;;;;;8.97;85.45;100210.38;4960861;28;20034;-84
2022/12/15 06:43:54;;;;;;;23.35;14.10;;;;;;;9.04;85.59;100239.03;4971488;28;20048;-85
2022/12/15 06:46:24;;;;;;;22.77;13.40;;;;;;;9.18;85.58;100250.16;4958850;28;20109;-86
2022/12/15 06:48:50;;;;;;;24.70;14.82;;;;;;;9.35;85.67;100265.31;4980627;28;20042;-85
2022/12/15 06:51:18;;;;;;;27.20;16.75;;;;;;;9.32;85.72;100260.28;4995341;28;20100;-87
2022/12/15 06:53:52;;;;;;;25.55;16.17;;;;;;;9.29;85.85;100255.22;4972935;28;20050;-84
2022/12/15 06:56:34;;;;;;;30.42;17.55;;;;;;;9.53;85.29;100278.63;4975199;28;20035;-85
2022/12/15 06:59:03;;;;;;;30.55;19.95;;;;;;;9.51;85.29;100273.41;4982019;28;20038;-85
2022/12/15 07:01:31;;;;;;;29.92;19.08;;;;;;;9.65;85.09;100281.84;5002574;28;20046;-86
2022/12/15 07:04:04;;;;;;;29.77;17.95;;;;;;;9.66;84.73;100286.19;4969403;28;20047;-86
2022/12/15 07:06:36;;;;;;;27.00;17.08;;;;;;;9.55;84.62;100252.44;4963197;28;20046;-86
2022/12/15 07:09:02;;;;;;;29.10;17.63;;;;;;;9.49;84.35;100242.38;4972340;28;20042;-86
2022/12/15 07:11:30;;;;;;;28.20;17.98;;;;;;;9.59;84.12;100269.06;4970152;28;20042;-85
2022/12/15 07:13:55;;;;;;;29.55;18.30;;;;;;;9.59;84.16;100252.97;4962053;28;20466;-85
2022/12/15 07:16:21;;;;;;;26.77;17.02;;;;;;;9.62;83.68;100247.25;4977668;28;20058;-85
2022/12/15 07:18:48;;;;;;;30.70;18.92;;;;;;;9.66;83.82;100259.34;4957790;28;20047;-86
2022/12/15 07:21:17;;;;;;;26.60;16.58;;;;;;;9.78;83.14;100268.75;4954835;28;20137;-84
2022/12/15 07:23:50;;;;;;;25.13;15.95;;;;;;;9.81;82.85;100284.56;4991224;28;20065;-84
2022/12/15 07:26:29;;;;;;;28.63;17.83;;;;;;;9.59;83.51;100258.31;4963900;28;20050;-87
2022/12/15 07:28:55;;;;;;;25.67;16.05;;;;;;;9.68;83.03;100278.81;4960022;28;20057;-86
2022/12/15 07:31:22;;;;;;;27.52;16.23;;;;;;;9.83;82.73;100301.34;4977858;28;20106;-85
2022/12/15 07:33:48;;;;;;;25.33;15.07;;;;;;;9.59;82.64;100261.00;4981335;28;20074;-83
2022/12/15 07:36:13;;;;;;;25.83;16.20;;;;;;;9.66;82.81;100276.28;4977699;28;20046;-85
2022/12/15 07:38:40;;;;;;;27.33;16.02;;;;;;;9.30;83.23;100256.91;4977755;28;20042;-88
2022/12/15 07:41:06;;;;;;;25.83;15.50;;;;;;;9.82;82.82;100291.59;4953941;28;20046;-85
2022/12/15 07:43:34;;;;;;;27.13;15.77;;;;;;;9.69;82.84;100301.97;4945090;28;20161;-85
2022/12/15 07:46:00;;;;;;;21.35;14.48;;;;;;;9.52;83.28;100277.75;4975855;28;20046;-84
2022/12/15 07:48:29;;;;;;;26.02;15.93;;;;;;;9.50;83.52;100286.97;4956249;28;20058;-85
2022/12/15 07:50:57;;;;;;;28.92;16.60;;;;;;;9.37;84.13;100274.03;4978083;28;20150;-85
2022/12/15 07:53:28;;;;;;;29.15;17.23;;;;;;;9.22;85.21;100289.06;4959441;28;20278;-83
2022/12/15 07:55:57;;;;;;;27.73;15.90;;;;;;;9.57;84.83;100298.75;4976783;28;20042;-83
2022/12/15 07:58:25;;;;;;;24.63;15.27;;;;;;;9.66;83.49;100296.94;4992964;28;20465;-85
2022/12/15 08:00:51;;;;;;;28.35;15.45;;;;;;;9.70;83.10;100299.13;4962308;28;20039;-85
2022/12/15 08:03:18;;;;;;;26.13;14.90;;;;;;;9.74;82.93;100299.66;4956571;28;20076;-86
2022/12/15 08:05:44;;;;;;;23.60;14.30;;;;;;;9.69;82.31;100307.31;4962156;28;20128;-84
2022/12/15 08:08:17;;;;;;;23.48;14.65;;;;;;;9.66;82.44;100291.56;4975765;28;20109;-84
2022/12/15 08:10:43;;;;;;;23.88;14.38;;;;;;;9.82;81.07;100280.03;4972700;28;20065;-87
2022/12/15 08:13:11;;;;;;;23.05;14.23;;;;;;;10.23;80.45;100302.41;4964474;28;20046;-87
2022/12/15 08:15:59;;;;;;;26.17;15.40;;;;;;;10.35;80.06;100281.44;5008803;28;20034;-90
2022/12/15 08:26:20;;;;;;;22.75;14.13;;;;;;;10.80;76.72;100279.19;2625888;22;20321;-91
2022/12/15 08:28:47;;;;;;;22.05;14.07;;;;;;;11.17;75.90;100309.00;4975381;28;20070;-88
2022/12/15 08:44:53;;;;;;;24.42;15.75;;;;;;;13.07;68.79;100306.66;3323412;22;20039;-91
2022/12/15 08:56:06;;;;;;;25.95;16.23;;;;;;;14.47;63.31;100309.13;5183973;22;20145;-91
2022/12/15 08:58:55;;;;;;;24.95;17.30;;;;;;;14.85;62.11;100311.53;4984541;28;20054;-89
2022/12/15 09:01:45;;;;;;;28.45;16.92;;;;;;;15.84;59.44;100302.25;4993575;28;20050;-87
2022/12/15 09:04:16;;;;;;;22.80;15.20;;;;;;;15.10;58.74;100292.09;4974966;28;20045;-91
2022/12/15 09:06:51;;;;;;;23.33;15.93;;;;;;;14.09;62.14;100293.19;4975796;28;20054;-86
2022/12/15 09:09:17;;;;;;;23.02;16.02;;;;;;;13.60;64.44;100283.09;4994247;28;20141;-86
2022/12/15 09:12:03;;;;;;;20.10;13.55;;;;;;;12.98;64.58;100275.38;4982159;28;20035;-88
2022/12/15 09:14:31;;;;;;;17.75;12.15;;;;;;;13.33;64.75;100327.81;4977150;28;20053;-88
2022/12/15 09:46:01;;;;;;;9.80;6.50;;;;;;;10.39;70.00;100312.31;2491596;22;20070;-90
2022/12/15 09:49:07;;;;;;;8.23;5.88;;;;;;;10.39;70.53;100323.06;5073168;23;20039;-91
2022/12/15 10:03:22;;;;;;;8.25;5.63;;;;;;;11.06;67.00;100375.78;5051466;22;20061;-88
2022/12/15 10:24:27;;;;;;;9.70;6.32;;;;;;;11.38;63.40;100353.34;4252082;26;20435;-88
2022/12/15 10:27:04;;;;;;;11.77;6.18;;;;;;;11.48;63.45;100345.88;4993454;28;20061;-88
2022/12/15 10:29:58;;;;;;;9.40;6.07;;;;;;;11.74;62.38;100339.38;4997260;28;20034;-88
2022/12/15 10:33:18;;;;;;;11.05;7.40;;;;;;;13.04;58.56;100371.78;5025665;28;20073;-87
2022/12/15 10:36:01;;;;;;;9.48;6.15;;;;;;;13.23;57.36;100327.22;5024523;28;20045;-87
2022/12/15 10:39:03;;;;;;;11.07;6.45;;;;;;;13.23;56.35;100349.66;5025315;28;20038;-89
2022/12/15 10:41:31;;;;;;;13.35;6.63;;;;;;;13.72;54.34;100345.56;4978666;28;20043;-87
2022/12/15 10:44:01;;;;;;;11.07;6.43;;;;;;;13.85;53.72;100334.06;4968680;28;20069;-84
2022/12/15 10:46:31;;;;;;;12.30;7.63;;;;;;;14.18;53.42;100355.22;5012490;28;20033;-87
2022/12/15 10:49:06;;;;;;;11.65;8.15;;;;;;;14.57;52.38;100379.97;4985338;28;20042;-86
2022/12/15 10:51:37;;;;;;;14.47;7.73;;;;;;;15.50;49.88;100373.56;5009756;28;20069;-88
2022/12/15 10:54:15;;;;;;;14.68;8.93;;;;;;;16.66;47.24;100392.53;4995449;28;20566;-86
2022/12/15 10:56:55;;;;;;;15.02;9.88;;;;;;;18.22;43.31;100391.84;5003252;28;20150;-89
2022/12/15 10:59:51;;;;;;;19.27;9.15;;;;;;;18.69;41.98;100388.81;5003214;28;20046;-89
2022/12/15 11:02:22;;;;;;;18.38;9.77;;;;;;;19.74;39.35;100390.81;5005190;28;20050;-87
2022/12/15 11:05:09;;;;;;;16.88;10.20;;;;;;;20.76;36.82;100382.69;5027717;28;20041;-87
2022/12/15 11:07:46;;;;;;;13.27;9.07;;;;;;;20.33;37.82;100389.19;5006284;28;20124;-87
2022/12/15 11:13:21;;;;;;;10.82;7.03;;;;;;;21.14;35.24;100394.25;4934210;29;20180;-87
2022/12/15 11:15:52;;;;;;;10.15;7.40;;;;;;;22.46;34.31;100412.69;5001880;28;20045;-87
2022/12/15 11:18:36;;;;;;;10.32;6.50;;;;;;;23.29;32.01;100398.47;4981054;28;20058;-87
2022/12/15 11:21:05;;;;;;;8.65;6.32;;;;;;;23.06;32.43;100385.78;5032967;28;20123;-88
2022/12/15 11:23:55;;;;;;;7.43;5.60;;;;;;;23.31;32.26;100397.13;4987782;28;20057;-87
2022/12/15 11:26:43;;;;;;;9.98;6.22;;;;;;;23.92;30.51;100391.66;5042080;28;20370;-88
2022/12/15 11:29:20;;;;;;;9.43;6.57;;;;;;;24.55;30.14;100416.84;5046093;28;20049;-88
2022/12/15 11:31:46;;;;;;;10.40;6.40;;;;;;;24.77;29.43;100422.28;5008709;28;20042;-88
2022/12/15 11:34:31;;;;;;;11.68;6.60;;;;;;;23.91;30.46;100405.66;4987005;28;20517;-88
2022/12/15 11:37:40;;;;;;;11.07;6.70;;;;;;;23.35;32.12;100435.88;4997796;28;20045;-88
2022/12/15 11:43:11;;;;;;;10.20;5.95;;;;;;;22.78;32.12;100442.31;2380652;22;20042;-92
2022/12/15 11:46:22;;;;;;;11.55;5.90;;;;;;;22.42;32.12;100427.94;5035384;28;20050;-89
2022/12/15 12:06:12;;;;;;;8.60;5.60;;;;;;;17.55;40.49;100461.91;5001196;28;20059;-88
2022/12/15 12:08:59;;;;;;;13.55;6.40;;;;;;;17.66;41.09;100458.53;4997443;28;20050;-87
2022/12/15 12:12:46;;;;;;;8.75;5.70;;;;;;;17.14;42.21;100470.28;4998042;28;20038;-86
2022/12/15 12:15:34;;;;;;;9.50;6.30;;;;;;;17.57;41.52;100478.84;4971725;28;20053;-87
2022/12/15 12:18:14;;;;;;;10.80;5.72;;;;;;;17.27;42.52;100475.72;5019952;28;20038;-88
2022/12/15 12:21:11;;;;;;;9.02;6.00;;;;;;;16.81;42.87;100460.22;5003641;28;20050;-86
2022/12/15 12:23:53;;;;;;;10.57;6.57;;;;;;;16.53;42.73;100466.66;4985027;28;20052;-87
2022/12/15 12:26:27;;;;;;;14.48;6.30;;;;;;;15.28;45.37;100468.44;5031613;28;20053;-86
2022/12/15 12:28:58;;;;;;;13.20;6.85;;;;;;;15.55;45.85;100445.09;5032046;28;20037;-85
2022/12/15 12:32:03;;;;;;;12.95;6.70;;;;;;;15.52;46.07;100474.44;4994715;28;20057;-88
2022/12/15 12:35:05;;;;;;;10.93;6.32;;;;;;;15.06;47.61;100502.00;4989654;28;20038;-87
2022/12/15 12:37:42;;;;;;;13.90;6.55;;;;;;;14.30;49.55;100470.78;5014472;28;20069;-87
2022/12/15 12:40:42;;;;;;;15.48;8.93;;;;;;;13.94;50.87;100505.88;4997973;28;20104;-87
2022/12/15 12:43:11;;;;;;;13.75;6.20;;;;;;;13.46;52.03;100498.13;5028569;28;20049;-88
2022/12/15 12:46:12;;;;;;;9.73;6.05;;;;;;;13.05;53.77;100494.91;4998443;28;20042;-87
2022/12/15 12:48:42;;;;;;;10.10;6.60;;;;;;;12.54;55.35;100498.13;5016783;28;20042;-87
2022/12/15 12:51:19;;;;;;;9.10;6.55;;;;;;;12.31;56.39;100516.94;4973584;28;20050;-86
2022/12/15 12:53:49;;;;;;;10.88;6.70;;;;;;;11.80;57.29;100494.91;5005349;28;20428;-88
2022/12/15 12:56:45;;;;;;;10.52;6.43;;;;;;;11.52;58.54;100522.22;4988147;28;20035;-87
2022/12/15 12:59:56;;;;;;;9.88;6.30;;;;;;;11.72;58.28;100527.22;4999196;28;20074;-87
2022/12/15 13:02:28;;;;;;;8.95;6.57;;;;;;;11.74;58.52;100547.59;4953084;28;20043;-87
2022/12/15 13:05:00;;;;;;;18.83;6.70;;;;;;;11.76;58.70;100550.13;4994750;28;20055;-88
2022/12/15 13:07:36;;;;;;;9.98;6.35;;;;;;;11.56;58.89;100545.09;4999585;28;20049;-87
2022/12/15 13:10:19;;;;;;;10.65;6.45;;;;;;;11.35;60.12;100536.69;4983477;28;20410;-90
2022/12/15 13:12:58;;;;;;;10.57;6.90;;;;;;;11.06;60.28;100526.44;4988325;28;20045;-86
2022/12/15 13:15:27;;;;;;;11.25;6.80;;;;;;;11.07;60.96;100544.25;4983080;28;20186;-89
2022/12/15 13:18:22;;;;;;;9.38;6.40;;;;;;;11.10;60.63;100522.41;4977779;28;20057;-85
2022/12/15 13:20:49;;;;;;;14.63;6.93;;;;;;;10.97;61.70;100541.72;4951779;28;20051;-88
2022/12/15 13:23:21;;;;;;;12.90;6.78;;;;;;;10.91;61.77;100578.22;4970168;28;20336;-84
2022/12/15 13:25:58;;;;;;;11.43;7.10;;;;;;;10.94;62.27;100582.41;4983336;28;20062;-85
2022/12/15 13:28:39;;;;;;;10.85;6.88;;;;;;;10.93;61.94;100588.78;5001719;28;20107;-86
2022/12/15 13:31:26;;;;;;;10.82;7.80;;;;;;;10.44;62.86;100561.75;4981570;28;20583;-87
2022/12/15 13:34:22;;;;;;;12.63;7.32;;;;;;;10.38;63.46;100567.81;4961564;28;20173;-85
2022/12/15 13:36:52;;;;;;;11.75;7.90;;;;;;;10.19;64.16;100596.56;4986324;28;20053;-86
2022/12/15 13:39:18;;;;;;;12.60;8.07;;;;;;;10.13;64.02;100605.25;4977514;28;20038;-83
2022/12/15 13:41:51;;;;;;;13.13;7.32;;;;;;;9.81;65.11;100605.88;4985242;28;20042;-86
2022/12/15 13:44:40;;;;;;;10.88;7.38;;;;;;;9.74;65.64;100581.53;4980793;28;20051;-85
2022/12/15 13:47:27;;;;;;;18.83;7.45;;;;;;;9.61;65.71;100573.03;4988280;28;20114;-86
2022/12/15 13:50:13;;;;;;;15.70;7.45;;;;;;;9.68;66.07;100611.69;4972377;28;20043;-86
2022/12/15 13:52:57;;;;;;;;;;;;;;;9.56;66.80;100618.31;4961104;28;20035;-87
2022/12/15 13:55:26;;;;;;;12.13;6.70;;;;;;;9.39;66.90;100623.53;4988898;28;19989;-85
2022/12/15 13:58:12;;;;;;;10.93;7.75;;;;;;;9.26;67.79;100640.00;4965067;28;20106;-85
2022/12/15 14:00:39;;;;;;;;;;;;;;;9.24;67.83;100646.50;4980982;28;20053;-85
2022/12/15 14:03:08;;;;;;;15.30;8.85;;;;;;;9.09;69.48;100644.34;4999005;28;19914;-85
2022/12/15 14:05:35;;;;;;;12.43;8.07;;;;;;;8.95;68.40;100631.47;4940406;28;20130;-87
2022/12/15 14:08:02;;;;;;;14.55;8.18;;;;;;;8.73;68.95;100626.53;4969127;28;20103;-86
2022/12/15 14:10:53;;;;;;;12.00;8.18;;;;;;;8.53;69.23;100613.22;4965891;28;20043;-85
2022/12/15 14:13:29;;;;;;;14.50;9.60;;;;;;;8.69;70.27;100646.59;4970048;28;20396;-86
2022/12/15 14:16:16;;;;;;;17.42;8.55;;;;;;;8.50;69.40;100623.38;4980014;28;20039;-88
2022/12/15 14:18:42;;;;;;;16.15;9.10;;;;;;;8.25;70.45;100634.59;4978762;28;20077;-86
2022/12/15 14:21:29;;;;;;;12.43;8.48;;;;;;;8.09;71.07;100637.06;4966767;28;20423;-86
2022/12/15 14:23:56;;;;;;;18.55;8.50;;;;;;;7.94;71.63;100641.19;4971267;28;20038;-86
2022/12/15 14:26:29;;;;;;;12.02;8.23;;;;;;;8.11;70.79;100666.38;4952067;28;20046;-88
2022/12/15 14:29:03;;;;;;;12.45;7.90;;;;;;;7.87;72.27;100658.81;4970378;28;20531;-85
2022/12/15 14:31:29;;;;;;;14.57;8.98;;;;;;;7.85;72.19;100690.25;4984304;28;20476;-84
2022/12/15 14:34:06;;;;;;;14.60;8.45;;;;;;;7.49;73.49;100674.75;4975974;28;20184;-84
2022/12/15 14:36:33;;;;;;;14.55;8.90;;;;;;;7.43;74.18;100682.50;4965212;28;20533;-86
2022/12/15 14:39:05;;;;;;;15.77;9.07;;;;;;;7.30;74.12;100678.25;4955642;28;20513;-85
2022/12/15 14:42:00;;;;;;;16.50;8.88;;;;;;;7.40;73.66;100692.50;4952132;28;20158;-84
2022/12/15 14:44:39;;;;;;;12.88;8.73;;;;;;;7.26;74.65;100706.28;4982752;28;20122;-84
2022/12/15 14:47:08;;;;;;;18.50;10.00;;;;;;;7.10;75.02;100668.53;4941152;28;20043;-86
2022/12/15 14:49:44;;;;;;;18.45;9.85;;;;;;;7.19;75.50;100694.44;4941227;28;20070;-86
2022/12/15 14:52:29;;;;;;;19.65;10.18;;;;;;;7.24;74.95;100712.75;4983403;28;20057;-86
2022/12/15 14:55:02;;;;;;;19.30;10.43;;;;;;;6.89;76.09;100690.84;4970175;28;20061;-85
2022/12/15 14:57:42;;;;;;;20.60;10.27;;;;;;;6.83;75.86;100678.00;4959494;28;20038;-86
2022/12/15 15:00:31;;;;;;;22.95;11.77;;;;;;;7.00;75.88;100707.75;4962620;28;20043;-86
2022/12/15 15:03:20;;;;;;;16.33;9.05;;;;;;;6.93;75.95;100727.03;4975785;28;20125;-86
2022/12/15 15:06:03;;;;;;;13.82;8.35;;;;;;;6.83;76.22;100731.47;4980856;28;20070;-87
2022/12/15 15:08:37;;;;;;;16.25;9.95;;;;;;;6.80;76.62;100733.56;4991294;28;20033;-85
2022/12/15 15:11:28;;;;;;;13.88;8.63;;;;;;;6.72;76.88;100728.91;4979634;28;20578;-85
2022/12/15 15:14:22;;;;;;;16.13;9.43;;;;;;;6.70;76.65;100741.56;4957545;28;20525;-84
2022/12/15 15:17:15;;;;;;;17.08;9.75;;;;;;;6.78;76.64;100752.41;4942205;28;20046;-85
2022/12/15 15:20:04;;;;;;;21.92;11.70;;;;;;;6.64;77.64;100752.78;5004780;28;20042;-86
2022/12/15 15:22:38;;;;;;;16.98;10.65;;;;;;;6.48;77.51;100710.50;4970297;28;20038;-86
2022/12/15 15:25:37;;;;;;;14.95;10.65;;;;;;;6.69;77.39;100751.38;4974160;28;20121;-85
2022/12/15 15:28:26;;;;;;;23.67;11.52;;;;;;;6.61;77.12;100742.34;4964543;28;20039;-87
2022/12/15 15:31:05;;;;;;;30.55;18.70;;;;;;;6.58;76.97;100726.56;4969540;28;20092;-85
2022/12/15 15:33:33;;;;;;;39.95;28.08;;;;;;;6.61;76.74;100739.69;4950171;28;20051;-86
2022/12/15 15:36:01;;;;;;;50.00;30.40;;;;;;;6.46;77.09;100726.69;4971968;28;20047;-84
2022/12/15 15:38:45;;;;;;;59.60;34.72;;;;;;;6.47;77.50;100749.72;4954226;28;20037;-87
2022/12/15 15:41:17;;;;;;;32.45;18.63;;;;;;;6.53;77.52;100767.91;4989198;28;20046;-83
2022/12/15 15:43:48;;;;;;;25.55;15.40;;;;;;;6.42;76.59;100738.59;4973080;28;20065;-87
2022/12/15 15:46:20;;;;;;;28.23;14.30;;;;;;;6.51;76.57;100772.53;4958371;28;20043;-87
2022/12/15 15:49:02;;;;;;;25.70;14.77;;;;;;;6.45;77.19;100774.88;4955224;28;20466;-84
2022/12/15 15:51:30;;;;;;;21.00;13.00;;;;;;;6.40;77.06;100777.94;4998650;28;20034;-87
2022/12/15 15:53:58;;;;;;;25.55;14.45;;;;;;;6.51;77.37;100782.38;4981541;28;20513;-84
2022/12/15 15:56:53;;;;;;;28.60;15.23;;;;;;;6.40;77.27;100771.75;4987959;28;20041;-86
2022/12/15 15:59:23;;;;;;;23.63;13.07;;;;;;;6.39;76.48;100765.59;4982844;28;20053;-88
2022/12/15 16:01:54;;;;;;;28.63;13.52;;;;;;;6.55;76.96;100807.81;4980609;28;20455;-85
2022/12/15 16:04:28;;;;;;;34.03;14.95;;;;;;;6.47;77.73;100811.16;4975419;28;20089;-89